sensor_id;sensor_type;location;lat;lon;timestamp;temperature;humidity
20566;DHT22;10441;50.884;12.064;2022-08-20T00:00:07;16.80;99.90
20566;DHT22;10441;50.884;12.064;2022-08-20T00:02:39;16.80;99.90
20566;DHT22;10441;50.884;12.064;2022-08-20T00:05:06;16.80;99.90
20566;DHT22;10441;50.884;12.064;2022-08-20T00:07:33;16.80;99.90
20566;DHT22;10441;50.884;12.064;2022-08-20T00:10:00;16.80;99.90
20566;DHT22;10441;50.884;12.064;2022-08-20T00:12:26;16.70;99.90
20566;DHT22;10441;50.884;12.064;2022-08-20T00:14:53;16.70;99.90
20566;DHT22;10441;50.884;12.064;2022-08-20T00:17:20;16.60;99.90
20566;DHT22;10441;50.884;12.064;2022-08-20T00:19:49;16.70;99.90
20566;DHT22;10441;50.884;12.064;2022-08-20T00:22:16;16.70;99.90
20566;DHT22;10441;50.884;12.064;2022-08-20T00:24:42;16.70;99.90
20566;DHT22;10441;50.884;12.064;2022-08-20T00:27:10;16.80;99.90
20566;DHT22;10441;50.884;12.064;2022-08-20T00:29:36;16.70;99.90
20566;DHT22;10441;50.884;12.064;2022-08-20T00:32:03;16.70;99.90
20566;DHT22;10441;50.884;12.064;2022-08-20T00:34:30;16.70;99.90
20566;DHT22;10441;50.884;12.064;2022-08-20T00:36:58;16.70;99.90
20566;DHT22;10441;50.884;12.064;2022-08-20T00:39:25;16.70;99.90
20566;DHT22;10441;50.884;12.064;2022-08-20T00:41:52;16.70;99.90
20566;DHT22;10441;50.884;12.064;2022-08-20T00:44:20;16.80;99.90
20566;DHT22;10441;50.884;12.064;2022-08-20T00:46:48;16.70;99.90
20566;DHT22;10441;50.884;12.064;2022-08-20T00:49:17;16.70;99.90
20566;DHT22;10441;50.884;12.064;2022-08-20T00:51:45;16.70;99.90
20566;DHT22;10441;50.884;12.064;2022-08-20T00:54:15;16.60;99.90
20566;DHT22;10441;50.884;12.064;2022-08-20T00:56:44;16.70;99.90
20566;DHT22;10441;50.884;12.064;2022-08-20T00:59:17;16.60;99.90
20566;DHT22;10441;50.884;12.064;2022-08-20T01:01:46;16.60;99.90
20566;DHT22;10441;50.884;12.064;2022-08-20T01:04:13;16.60;99.90
20566;DHT22;10441;50.884;12.064;2022-08-20T01:06:40;16.70;99.90
20566;DHT22;10441;50.884;12.064;2022-08-20T01:09:07;16.60;99.90
20566;DHT22;10441;50.884;12.064;2022-08-20T01:11:36;16.60;99.90
20566;DHT22;10441;50.884;12.064;2022-08-20T01:14:04;16.60;99.90
20566;DHT22;10441;50.884;12.064;2022-08-20T01:16:44;16.60;99.90
20566;DHT22;10441;50.884;12.064;2022-08-20T01:19:13;16.60;99.90
20566;DHT22;10441;50.884;12.064;2022-08-20T01:21:42;16.70;99.90
20566;DHT22;10441;50.884;12.064;2022-08-20T01:24:10;16.60;99.90
20566;DHT22;10441;50.884;12.064;2022-08-20T01:26:41;16.60;99.90
20566;DHT22;10441;50.884;12.064;2022-08-20T01:29:11;16.60;99.90
20566;DHT22;10441;50.884;12.064;2022-08-20T01:31:40;16.60;99.90
20566;DHT22;10441;50.884;12.064;2022-08-20T01:34:08;16.60;99.90
20566;DHT22;10441;50.884;12.064;2022-08-20T01:36:36;16.60;99.90
20566;DHT22;10441;50.884;12.064;2022-08-20T01:39:06;16.60;99.90
20566;DHT22;10441;50.884;12.064;2022-08-20T01:41:38;16.60;99.90
20566;DHT22;10441;50.884;12.064;2022-08-20T01:44:09;16.60;99.90
20566;DHT22;10441;50.884;12.064;2022-08-20T01:46:38;16.60;99.90
20566;DHT22;10441;50.884;12.064;2022-08-20T01:49:06;16.60;99.90
20566;DHT22;10441;50.884;12.064;2022-08-20T01:51:35;16.60;99.90
20566;DHT22;10441;50.884;12.064;2022-08-20T01:54:03;16.60;99.90
20566;DHT22;10441;50.884;12.064;2022-08-20T01:56:32;16.50;99.90
20566;DHT22;10441;50.884;12.064;2022-08-20T01:59:02;16.60;99.90
20566;DHT22;10441;50.884;12.064;2022-08-20T02:01:36;16.60;99.90
20566;DHT22;10441;50.884;12.064;2022-08-20T02:04:06;16.60;99.90
20566;DHT22;10441;50.884;12.064;2022-08-20T02:06:35;16.60;99.90
20566;DHT22;10441;50.884;12.064;2022-08-20T02:09:03;16.50;99.90
20566;DHT22;10441;50.884;12.064;2022-08-20T02:11:33;16.60;99.90
20566;DHT22;10441;50.884;12.064;2022-08-20T02:14:00;16.60;99.90
20566;DHT22;10441;50.884;12.064;2022-08-20T02:16:30;16.50;99.90
20566;DHT22;10441;50.884;12.064;2022-08-20T02:18:59;16.60;99.90
20566;DHT22;10441;50.884;12.064;2022-08-20T02:21:29;16.60;99.90
20566;DHT22;10441;50.884;12.064;2022-08-20T02:23:58;16.60;99.90
20566;DHT22;10441;50.884;12.064;2022-08-20T02:26:26;16.60;99.90
20566;DHT22;10441;50.884;12.064;2022-08-20T02:28:55;16.60;99.90
20566;DHT22;10441;50.884;12.064;2022-08-20T02:31:24;16.60;99.90
20566;DHT22;10441;50.884;12.064;2022-08-20T02:33:52;16.60;99.90
20566;DHT22;10441;50.884;12.064;2022-08-20T02:36:22;16.60;99.90
20566;DHT22;10441;50.884;12.064;2022-08-20T02:38:51;16.60;99.90
20566;DHT22;10441;50.884;12.064;2022-08-20T02:41:19;16.60;99.90
20566;DHT22;10441;50.884;12.064;2022-08-20T02:43:48;16.60;99.90
20566;DHT22;10441;50.884;12.064;2022-08-20T02:46:17;16.60;99.90
20566;DHT22;10441;50.884;12.064;2022-08-20T02:48:45;16.60;99.90
20566;DHT22;10441;50.884;12.064;2022-08-20T02:51:12;16.60;99.90
20566;DHT22;10441;50.884;12.064;2022-08-20T02:53:41;16.50;99.90
20566;DHT22;10441;50.884;12.064;2022-08-20T02:56:09;16.60;99.90
20566;DHT22;10441;50.884;12.064;2022-08-20T02:58:38;16.60;99.90
20566;DHT22;10441;50.884;12.064;2022-08-20T03:01:07;16.50;99.90
20566;DHT22;10441;50.884;12.064;2022-08-20T03:03:37;16.60;99.90
20566;DHT22;10441;50.884;12.064;2022-08-20T03:06:05;16.60;99.90
20566;DHT22;10441;50.884;12.064;2022-08-20T03:08:32;16.50;99.90
20566;DHT22;10441;50.884;12.064;2022-08-20T03:11:02;16.60;99.90
20566;DHT22;10441;50.884;12.064;2022-08-20T03:13:31;16.50;99.90
20566;DHT22;10441;50.884;12.064;2022-08-20T03:16:00;16.50;99.90
20566;DHT22;10441;50.884;12.064;2022-08-20T03:18:30;16.50;99.90
20566;DHT22;10441;50.884;12.064;2022-08-20T03:20:58;16.50;99.90
20566;DHT22;10441;50.884;12.064;2022-08-20T03:23:27;16.50;99.90
20566;DHT22;10441;50.884;12.064;2022-08-20T03:25:57;16.50;99.90
20566;DHT22;10441;50.884;12.064;2022-08-20T03:28:27;16.50;99.90
20566;DHT22;10441;50.884;12.064;2022-08-20T03:30:56;16.50;99.90
20566;DHT22;10441;50.884;12.064;2022-08-20T03:33:25;16.50;99.90
20566;DHT22;10441;50.884;12.064;2022-08-20T03:35:58;16.60;99.90
20566;DHT22;10441;50.884;12.064;2022-08-20T03:38:25;16.50;99.90
20566;DHT22;10441;50.884;12.064;2022-08-20T03:40:53;16.50;99.90
20566;DHT22;10441;50.884;12.064;2022-08-20T03:43:22;16.50;99.90
20566;DHT22;10441;50.884;12.064;2022-08-20T03:45:51;16.50;99.90
20566;DHT22;10441;50.884;12.064;2022-08-20T03:48:20;16.40;99.90
20566;DHT22;10441;50.884;12.064;2022-08-20T03:50:48;16.50;99.90
20566;DHT22;10441;50.884;12.064;2022-08-20T03:53:16;16.40;99.90
20566;DHT22;10441;50.884;12.064;2022-08-20T03:55:45;16.40;99.90
20566;DHT22;10441;50.884;12.064;2022-08-20T03:58:13;16.40;99.90
20566;DHT22;10441;50.884;12.064;2022-08-20T04:00:44;16.50;99.90
20566;DHT22;10441;50.884;12.064;2022-08-20T04:03:14;16.50;99.90
20566;DHT22;10441;50.884;12.064;2022-08-20T04:05:43;16.50;99.90
20566;DHT22;10441;50.884;12.064;2022-08-20T04:08:13;16.50;99.90
20566;DHT22;10441;50.884;12.064;2022-08-20T04:10:54;16.40;99.90
20566;DHT22;10441;50.884;12.064;2022-08-20T04:13:23;16.40;99.90
20566;DHT22;10441;50.884;12.064;2022-08-20T04:15:52;16.40;99.90
20566;DHT22;10441;50.884;12.064;2022-08-20T04:18:25;16.40;99.90
20566;DHT22;10441;50.884;12.064;2022-08-20T04:20:53;16.40;99.90
20566;DHT22;10441;50.884;12.064;2022-08-20T04:23:21;16.40;99.90
20566;DHT22;10441;50.884;12.064;2022-08-20T04:25:49;16.40;99.90
20566;DHT22;10441;50.884;12.064;2022-08-20T04:28:17;16.40;99.90
20566;DHT22;10441;50.884;12.064;2022-08-20T04:30:53;16.40;99.90
20566;DHT22;10441;50.884;12.064;2022-08-20T04:33:22;16.50;99.90
20566;DHT22;10441;50.884;12.064;2022-08-20T04:35:50;16.40;99.90
20566;DHT22;10441;50.884;12.064;2022-08-20T04:38:19;16.40;99.90
20566;DHT22;10441;50.884;12.064;2022-08-20T04:40:47;16.40;99.90
20566;DHT22;10441;50.884;12.064;2022-08-20T04:43:26;16.40;99.90
20566;DHT22;10441;50.884;12.064;2022-08-20T04:45:55;16.40;99.90
20566;DHT22;10441;50.884;12.064;2022-08-20T04:48:25;16.40;99.90
20566;DHT22;10441;50.884;12.064;2022-08-20T04:50:54;16.40;99.90
20566;DHT22;10441;50.884;12.064;2022-08-20T04:53:25;16.40;99.90
20566;DHT22;10441;50.884;12.064;2022-08-20T04:55:54;16.40;99.90
20566;DHT22;10441;50.884;12.064;2022-08-20T04:58:23;16.50;99.90
20566;DHT22;10441;50.884;12.064;2022-08-20T05:00:53;16.50;99.90
20566;DHT22;10441;50.884;12.064;2022-08-20T05:03:22;16.50;99.90
20566;DHT22;10441;50.884;12.064;2022-08-20T05:05:52;16.50;99.90
20566;DHT22;10441;50.884;12.064;2022-08-20T05:08:22;16.50;99.90
20566;DHT22;10441;50.884;12.064;2022-08-20T05:10:51;16.50;99.90
20566;DHT22;10441;50.884;12.064;2022-08-20T05:13:20;16.50;99.90
20566;DHT22;10441;50.884;12.064;2022-08-20T05:15:48;16.50;99.90
20566;DHT22;10441;50.884;12.064;2022-08-20T05:18:15;16.50;99.90
20566;DHT22;10441;50.884;12.064;2022-08-20T05:20:44;16.40;99.90
20566;DHT22;10441;50.884;12.064;2022-08-20T05:23:13;16.50;99.90
20566;DHT22;10441;50.884;12.064;2022-08-20T05:25:41;16.50;99.90
20566;DHT22;10441;50.884;12.064;2022-08-20T05:28:12;16.50;99.90
20566;DHT22;10441;50.884;12.064;2022-08-20T05:30:39;16.50;99.90
20566;DHT22;10441;50.884;12.064;2022-08-20T05:33:12;16.60;99.90
20566;DHT22;10441;50.884;12.064;2022-08-20T05:35:44;16.50;99.90
20566;DHT22;10441;50.884;12.064;2022-08-20T05:38:14;16.50;99.90
20566;DHT22;10441;50.884;12.064;2022-08-20T05:40:43;16.50;99.90
20566;DHT22;10441;50.884;12.064;2022-08-20T05:43:10;16.60;99.90
20566;DHT22;10441;50.884;12.064;2022-08-20T05:45:37;16.60;99.90
20566;DHT22;10441;50.884;12.064;2022-08-20T05:48:04;16.60;99.90
20566;DHT22;10441;50.884;12.064;2022-08-20T05:50:33;16.60;99.90
20566;DHT22;10441;50.884;12.064;2022-08-20T05:53:00;16.60;99.90
20566;DHT22;10441;50.884;12.064;2022-08-20T05:55:28;16.70;99.90
20566;DHT22;10441;50.884;12.064;2022-08-20T05:57:56;16.80;99.90
20566;DHT22;10441;50.884;12.064;2022-08-20T06:00:23;16.80;99.90
20566;DHT22;10441;50.884;12.064;2022-08-20T06:02:50;16.80;99.90
20566;DHT22;10441;50.884;12.064;2022-08-20T06:05:34;16.70;99.90
20566;DHT22;10441;50.884;12.064;2022-08-20T06:08:02;16.80;99.90
20566;DHT22;10441;50.884;12.064;2022-08-20T06:10:30;16.80;99.90
20566;DHT22;10441;50.884;12.064;2022-08-20T06:12:57;16.80;99.90
20566;DHT22;10441;50.884;12.064;2022-08-20T06:15:24;16.80;99.90
20566;DHT22;10441;50.884;12.064;2022-08-20T06:17:51;16.90;99.90
20566;DHT22;10441;50.884;12.064;2022-08-20T06:20:19;17.00;99.90
20566;DHT22;10441;50.884;12.064;2022-08-20T06:22:45;17.00;99.90
20566;DHT22;10441;50.884;12.064;2022-08-20T06:25:12;17.10;99.90
20566;DHT22;10441;50.884;12.064;2022-08-20T06:27:41;17.10;99.90
20566;DHT22;10441;50.884;12.064;2022-08-20T06:30:09;17.10;99.90
20566;DHT22;10441;50.884;12.064;2022-08-20T06:32:36;17.20;99.90
20566;DHT22;10441;50.884;12.064;2022-08-20T06:35:05;17.40;99.90
20566;DHT22;10441;50.884;12.064;2022-08-20T06:37:33;17.40;99.90
20566;DHT22;10441;50.884;12.064;2022-08-20T06:40:03;17.30;99.90
20566;DHT22;10441;50.884;12.064;2022-08-20T06:42:31;17.40;99.90
20566;DHT22;10441;50.884;12.064;2022-08-20T06:44:59;17.40;99.90
20566;DHT22;10441;50.884;12.064;2022-08-20T06:47:29;17.50;99.90
20566;DHT22;10441;50.884;12.064;2022-08-20T06:49:56;17.60;99.90
20566;DHT22;10441;50.884;12.064;2022-08-20T06:52:23;17.70;99.90
20566;DHT22;10441;50.884;12.064;2022-08-20T06:54:50;17.70;99.90
20566;DHT22;10441;50.884;12.064;2022-08-20T06:57:17;17.80;99.90
20566;DHT22;10441;50.884;12.064;2022-08-20T06:59:44;17.90;99.90
20566;DHT22;10441;50.884;12.064;2022-08-20T07:02:12;17.80;99.90
20566;DHT22;10441;50.884;12.064;2022-08-20T07:04:38;17.90;99.90
20566;DHT22;10441;50.884;12.064;2022-08-20T07:07:14;17.70;99.90
20566;DHT22;10441;50.884;12.064;2022-08-20T07:09:40;17.70;99.90
20566;DHT22;10441;50.884;12.064;2022-08-20T07:12:08;17.80;99.90
20566;DHT22;10441;50.884;12.064;2022-08-20T07:14:35;17.80;99.90
20566;DHT22;10441;50.884;12.064;2022-08-20T07:17:02;17.90;99.90
20566;DHT22;10441;50.884;12.064;2022-08-20T07:19:30;17.90;99.90
20566;DHT22;10441;50.884;12.064;2022-08-20T07:21:57;17.70;99.90
20566;DHT22;10441;50.884;12.064;2022-08-20T07:24:24;17.70;99.90
20566;DHT22;10441;50.884;12.064;2022-08-20T07:26:52;17.70;99.90
20566;DHT22;10441;50.884;12.064;2022-08-20T07:29:18;17.90;99.90
20566;DHT22;10441;50.884;12.064;2022-08-20T07:31:45;17.90;99.90
20566;DHT22;10441;50.884;12.064;2022-08-20T07:34:31;17.90;99.90
20566;DHT22;10441;50.884;12.064;2022-08-20T07:36:57;18.00;99.90
20566;DHT22;10441;50.884;12.064;2022-08-20T07:39:24;18.00;99.90
20566;DHT22;10441;50.884;12.064;2022-08-20T07:41:51;18.00;99.90
20566;DHT22;10441;50.884;12.064;2022-08-20T07:44:27;18.00;99.90
20566;DHT22;10441;50.884;12.064;2022-08-20T07:46:54;18.10;99.90
20566;DHT22;10441;50.884;12.064;2022-08-20T07:49:21;18.30;99.90
20566;DHT22;10441;50.884;12.064;2022-08-20T07:51:49;18.20;99.90
20566;DHT22;10441;50.884;12.064;2022-08-20T07:54:16;18.40;99.90
20566;DHT22;10441;50.884;12.064;2022-08-20T07:56:43;18.30;99.90
20566;DHT22;10441;50.884;12.064;2022-08-20T07:59:10;18.30;99.90
20566;DHT22;10441;50.884;12.064;2022-08-20T08:01:38;18.30;99.90
20566;DHT22;10441;50.884;12.064;2022-08-20T08:04:05;18.40;99.90
20566;DHT22;10441;50.884;12.064;2022-08-20T08:06:32;18.60;99.90
20566;DHT22;10441;50.884;12.064;2022-08-20T08:09:02;18.70;99.90
20566;DHT22;10441;50.884;12.064;2022-08-20T08:11:30;18.80;99.90
20566;DHT22;10441;50.884;12.064;2022-08-20T08:13:58;18.90;99.90
20566;DHT22;10441;50.884;12.064;2022-08-20T08:16:25;18.90;99.90
20566;DHT22;10441;50.884;12.064;2022-08-20T08:18:53;19.00;99.90
20566;DHT22;10441;50.884;12.064;2022-08-20T08:21:21;19.10;99.90
20566;DHT22;10441;50.884;12.064;2022-08-20T08:23:48;19.20;99.90
20566;DHT22;10441;50.884;12.064;2022-08-20T08:26:16;19.20;99.90
20566;DHT22;10441;50.884;12.064;2022-08-20T08:28:45;19.20;99.90
20566;DHT22;10441;50.884;12.064;2022-08-20T08:31:12;19.40;99.90
20566;DHT22;10441;50.884;12.064;2022-08-20T08:33:39;19.30;99.90
20566;DHT22;10441;50.884;12.064;2022-08-20T08:36:07;19.10;99.90
20566;DHT22;10441;50.884;12.064;2022-08-20T08:38:36;19.10;99.90
20566;DHT22;10441;50.884;12.064;2022-08-20T08:41:07;19.10;99.90
20566;DHT22;10441;50.884;12.064;2022-08-20T08:43:38;19.20;99.90
20566;DHT22;10441;50.884;12.064;2022-08-20T08:46:07;19.20;99.90
20566;DHT22;10441;50.884;12.064;2022-08-20T08:48:36;19.40;99.90
20566;DHT22;10441;50.884;12.064;2022-08-20T08:51:04;19.50;99.90
20566;DHT22;10441;50.884;12.064;2022-08-20T08:53:36;19.40;99.90
20566;DHT22;10441;50.884;12.064;2022-08-20T08:56:05;19.40;99.90
20566;DHT22;10441;50.884;12.064;2022-08-20T08:58:32;19.80;99.90
20566;DHT22;10441;50.884;12.064;2022-08-20T09:01:08;19.60;99.90
20566;DHT22;10441;50.884;12.064;2022-08-20T09:03:37;19.90;99.90
20566;DHT22;10441;50.884;12.064;2022-08-20T09:06:04;19.80;99.90
20566;DHT22;10441;50.884;12.064;2022-08-20T09:08:32;20.10;99.90
20566;DHT22;10441;50.884;12.064;2022-08-20T09:11:02;20.00;99.90
20566;DHT22;10441;50.884;12.064;2022-08-20T09:13:29;20.00;99.90
20566;DHT22;10441;50.884;12.064;2022-08-20T09:15:56;19.90;99.90
20566;DHT22;10441;50.884;12.064;2022-08-20T09:18:24;20.40;99.90
20566;DHT22;10441;50.884;12.064;2022-08-20T09:20:51;20.60;99.90
20566;DHT22;10441;50.884;12.064;2022-08-20T09:23:18;20.90;99.90
20566;DHT22;10441;50.884;12.064;2022-08-20T09:25:45;20.70;99.90
20566;DHT22;10441;50.884;12.064;2022-08-20T09:28:12;21.10;99.90
20566;DHT22;10441;50.884;12.064;2022-08-20T09:30:39;21.10;99.90
20566;DHT22;10441;50.884;12.064;2022-08-20T09:33:06;21.20;99.90
20566;DHT22;10441;50.884;12.064;2022-08-20T09:35:34;21.30;99.90
20566;DHT22;10441;50.884;12.064;2022-08-20T09:38:01;21.30;99.90
20566;DHT22;10441;50.884;12.064;2022-08-20T09:40:28;21.20;99.90
20566;DHT22;10441;50.884;12.064;2022-08-20T09:42:55;21.30;99.90
20566;DHT22;10441;50.884;12.064;2022-08-20T09:45:22;21.60;99.90
20566;DHT22;10441;50.884;12.064;2022-08-20T09:47:49;21.50;99.90
20566;DHT22;10441;50.884;12.064;2022-08-20T09:50:16;21.90;99.90
20566;DHT22;10441;50.884;12.064;2022-08-20T09:52:45;22.20;99.90
20566;DHT22;10441;50.884;12.064;2022-08-20T09:55:15;22.70;99.90
20566;DHT22;10441;50.884;12.064;2022-08-20T09:57:43;23.40;99.90
20566;DHT22;10441;50.884;12.064;2022-08-20T10:00:10;24.10;99.90
20566;DHT22;10441;50.884;12.064;2022-08-20T10:02:37;24.70;99.90
20566;DHT22;10441;50.884;12.064;2022-08-20T10:05:05;24.80;99.90
20566;DHT22;10441;50.884;12.064;2022-08-20T10:07:33;24.70;99.90
20566;DHT22;10441;50.884;12.064;2022-08-20T10:10:02;24.30;99.90
20566;DHT22;10441;50.884;12.064;2022-08-20T10:12:29;24.10;99.90
20566;DHT22;10441;50.884;12.064;2022-08-20T10:14:56;24.40;99.90
20566;DHT22;10441;50.884;12.064;2022-08-20T10:17:23;24.60;99.90
20566;DHT22;10441;50.884;12.064;2022-08-20T10:19:50;23.80;99.90
20566;DHT22;10441;50.884;12.064;2022-08-20T10:22:17;24.20;99.90
20566;DHT22;10441;50.884;12.064;2022-08-20T10:24:44;24.10;99.90
20566;DHT22;10441;50.884;12.064;2022-08-20T10:27:12;24.10;99.90
20566;DHT22;10441;50.884;12.064;2022-08-20T10:29:39;24.10;99.90
20566;DHT22;10441;50.884;12.064;2022-08-20T10:32:07;23.90;99.90
20566;DHT22;10441;50.884;12.064;2022-08-20T10:34:34;24.10;99.90
20566;DHT22;10441;50.884;12.064;2022-08-20T10:37:01;23.90;99.90
20566;DHT22;10441;50.884;12.064;2022-08-20T10:39:28;24.60;99.90
20566;DHT22;10441;50.884;12.064;2022-08-20T10:41:57;24.40;99.90
20566;DHT22;10441;50.884;12.064;2022-08-20T10:44:28;24.10;99.90
20566;DHT22;10441;50.884;12.064;2022-08-20T10:46:54;24.20;99.90
20566;DHT22;10441;50.884;12.064;2022-08-20T10:49:21;24.00;99.90
20566;DHT22;10441;50.884;12.064;2022-08-20T10:51:49;23.80;99.90
20566;DHT22;10441;50.884;12.064;2022-08-20T10:54:15;23.70;99.90
20566;DHT22;10441;50.884;12.064;2022-08-20T10:56:42;24.10;99.90
20566;DHT22;10441;50.884;12.064;2022-08-20T10:59:09;23.70;99.90
20566;DHT22;10441;50.884;12.064;2022-08-20T11:01:37;23.70;99.90
20566;DHT22;10441;50.884;12.064;2022-08-20T11:04:04;23.50;99.90
20566;DHT22;10441;50.884;12.064;2022-08-20T11:06:31;23.40;99.90
20566;DHT22;10441;50.884;12.064;2022-08-20T11:08:57;23.40;99.90
20566;DHT22;10441;50.884;12.064;2022-08-20T11:11:24;23.30;99.90
20566;DHT22;10441;50.884;12.064;2022-08-20T11:13:51;23.80;99.90
20566;DHT22;10441;50.884;12.064;2022-08-20T11:16:18;24.40;99.90
20566;DHT22;10441;50.884;12.064;2022-08-20T11:18:46;24.60;99.90
20566;DHT22;10441;50.884;12.064;2022-08-20T11:21:13;24.50;99.90
20566;DHT22;10441;50.884;12.064;2022-08-20T11:23:40;24.40;99.90
20566;DHT22;10441;50.884;12.064;2022-08-20T11:26:07;24.30;99.90
20566;DHT22;10441;50.884;12.064;2022-08-20T11:28:34;24.10;99.90
20566;DHT22;10441;50.884;12.064;2022-08-20T11:31:01;24.20;99.90
20566;DHT22;10441;50.884;12.064;2022-08-20T11:33:28;23.90;99.90
20566;DHT22;10441;50.884;12.064;2022-08-20T11:35:56;23.90;99.90
20566;DHT22;10441;50.884;12.064;2022-08-20T11:38:23;23.60;99.90
20566;DHT22;10441;50.884;12.064;2022-08-20T11:40:50;24.20;99.90
20566;DHT22;10441;50.884;12.064;2022-08-20T11:43:17;24.40;99.90
20566;DHT22;10441;50.884;12.064;2022-08-20T11:45:44;24.80;99.90
20566;DHT22;10441;50.884;12.064;2022-08-20T11:48:12;24.50;99.90
20566;DHT22;10441;50.884;12.064;2022-08-20T11:50:39;23.60;99.90
20566;DHT22;10441;50.884;12.064;2022-08-20T11:53:08;23.90;99.90
20566;DHT22;10441;50.884;12.064;2022-08-20T11:55:35;24.20;99.90
20566;DHT22;10441;50.884;12.064;2022-08-20T11:58:02;23.70;99.90
20566;DHT22;10441;50.884;12.064;2022-08-20T12:00:29;23.40;99.90
20566;DHT22;10441;50.884;12.064;2022-08-20T12:02:56;24.10;99.90
20566;DHT22;10441;50.884;12.064;2022-08-20T12:05:23;24.00;99.90
20566;DHT22;10441;50.884;12.064;2022-08-20T12:07:51;24.40;99.90
20566;DHT22;10441;50.884;12.064;2022-08-20T12:10:19;24.30;99.90
20566;DHT22;10441;50.884;12.064;2022-08-20T12:12:47;24.20;99.90
20566;DHT22;10441;50.884;12.064;2022-08-20T12:15:14;24.40;99.90
20566;DHT22;10441;50.884;12.064;2022-08-20T12:17:41;23.50;99.90
20566;DHT22;10441;50.884;12.064;2022-08-20T12:20:09;24.10;99.90
20566;DHT22;10441;50.884;12.064;2022-08-20T12:22:37;24.40;99.90
20566;DHT22;10441;50.884;12.064;2022-08-20T12:25:05;24.60;99.90
20566;DHT22;10441;50.884;12.064;2022-08-20T12:27:34;24.30;99.90
20566;DHT22;10441;50.884;12.064;2022-08-20T12:30:03;24.50;99.90
20566;DHT22;10441;50.884;12.064;2022-08-20T12:32:30;24.80;99.90
20566;DHT22;10441;50.884;12.064;2022-08-20T12:34:58;25.10;99.90
20566;DHT22;10441;50.884;12.064;2022-08-20T12:37:25;25.30;99.90
20566;DHT22;10441;50.884;12.064;2022-08-20T12:39:54;24.60;99.90
20566;DHT22;10441;50.884;12.064;2022-08-20T12:42:22;24.00;99.90
20566;DHT22;10441;50.884;12.064;2022-08-20T12:44:50;24.30;99.90
20566;DHT22;10441;50.884;12.064;2022-08-20T12:47:18;24.50;99.90
20566;DHT22;10441;50.884;12.064;2022-08-20T12:49:46;25.10;99.90
20566;DHT22;10441;50.884;12.064;2022-08-20T12:52:15;24.80;99.90
20566;DHT22;10441;50.884;12.064;2022-08-20T12:54:44;25.00;99.90
20566;DHT22;10441;50.884;12.064;2022-08-20T12:57:15;24.90;99.90
20566;DHT22;10441;50.884;12.064;2022-08-20T12:59:42;25.30;99.90
20566;DHT22;10441;50.884;12.064;2022-08-20T13:02:12;25.70;99.90
20566;DHT22;10441;50.884;12.064;2022-08-20T13:04:42;25.20;99.90
20566;DHT22;10441;50.884;12.064;2022-08-20T13:07:09;24.90;99.90
20566;DHT22;10441;50.884;12.064;2022-08-20T13:09:37;24.00;99.90
20566;DHT22;10441;50.884;12.064;2022-08-20T13:12:04;23.90;99.90
20566;DHT22;10441;50.884;12.064;2022-08-20T13:14:31;25.50;99.90
20566;DHT22;10441;50.884;12.064;2022-08-20T13:16:58;25.30;99.90
20566;DHT22;10441;50.884;12.064;2022-08-20T13:19:27;25.40;99.90
20566;DHT22;10441;50.884;12.064;2022-08-20T13:21:54;25.40;99.90
20566;DHT22;10441;50.884;12.064;2022-08-20T13:24:21;25.40;99.90
20566;DHT22;10441;50.884;12.064;2022-08-20T13:26:49;25.70;99.90
20566;DHT22;10441;50.884;12.064;2022-08-20T13:29:16;25.60;99.90
20566;DHT22;10441;50.884;12.064;2022-08-20T13:31:44;25.50;99.90
20566;DHT22;10441;50.884;12.064;2022-08-20T13:34:11;25.90;99.90
20566;DHT22;10441;50.884;12.064;2022-08-20T13:36:39;25.50;99.90
20566;DHT22;10441;50.884;12.064;2022-08-20T13:39:06;25.80;99.90
20566;DHT22;10441;50.884;12.064;2022-08-20T13:41:33;25.50;99.90
20566;DHT22;10441;50.884;12.064;2022-08-20T13:44:00;25.40;99.90
20566;DHT22;10441;50.884;12.064;2022-08-20T13:46:27;25.50;99.90
20566;DHT22;10441;50.884;12.064;2022-08-20T13:48:54;25.30;99.90
20566;DHT22;10441;50.884;12.064;2022-08-20T13:51:21;25.50;99.90
20566;DHT22;10441;50.884;12.064;2022-08-20T13:53:49;25.60;99.90
20566;DHT22;10441;50.884;12.064;2022-08-20T13:56:16;24.90;99.90
20566;DHT22;10441;50.884;12.064;2022-08-20T13:58:43;25.30;99.90
20566;DHT22;10441;50.884;12.064;2022-08-20T14:01:10;25.10;99.90
20566;DHT22;10441;50.884;12.064;2022-08-20T14:03:37;25.30;99.90
20566;DHT22;10441;50.884;12.064;2022-08-20T14:06:04;24.40;99.90
20566;DHT22;10441;50.884;12.064;2022-08-20T14:08:31;24.80;99.90
20566;DHT22;10441;50.884;12.064;2022-08-20T14:10:59;24.90;99.90
20566;DHT22;10441;50.884;12.064;2022-08-20T14:13:26;24.10;99.90
20566;DHT22;10441;50.884;12.064;2022-08-20T14:15:53;23.90;99.90
20566;DHT22;10441;50.884;12.064;2022-08-20T14:18:21;24.10;99.90
20566;DHT22;10441;50.884;12.064;2022-08-20T14:20:47;24.60;99.90
20566;DHT22;10441;50.884;12.064;2022-08-20T14:23:14;24.30;99.90
20566;DHT22;10441;50.884;12.064;2022-08-20T14:25:43;24.00;99.90
20566;DHT22;10441;50.884;12.064;2022-08-20T14:28:12;24.40;99.90
20566;DHT22;10441;50.884;12.064;2022-08-20T14:30:39;24.60;99.90
20566;DHT22;10441;50.884;12.064;2022-08-20T14:33:08;24.80;99.90
20566;DHT22;10441;50.884;12.064;2022-08-20T14:35:35;24.80;99.90
20566;DHT22;10441;50.884;12.064;2022-08-20T14:38:02;24.80;99.90
20566;DHT22;10441;50.884;12.064;2022-08-20T14:40:29;24.60;99.90
20566;DHT22;10441;50.884;12.064;2022-08-20T14:42:55;24.70;99.90
20566;DHT22;10441;50.884;12.064;2022-08-20T14:45:24;24.40;99.90
20566;DHT22;10441;50.884;12.064;2022-08-20T14:47:52;24.70;99.90
20566;DHT22;10441;50.884;12.064;2022-08-20T14:50:21;24.70;99.90
20566;DHT22;10441;50.884;12.064;2022-08-20T14:52:49;24.80;99.90
20566;DHT22;10441;50.884;12.064;2022-08-20T14:55:17;24.90;99.90
20566;DHT22;10441;50.884;12.064;2022-08-20T14:57:44;24.80;99.90
20566;DHT22;10441;50.884;12.064;2022-08-20T15:00:13;25.00;99.90
20566;DHT22;10441;50.884;12.064;2022-08-20T15:02:48;24.70;99.90
20566;DHT22;10441;50.884;12.064;2022-08-20T15:05:19;24.80;99.90
20566;DHT22;10441;50.884;12.064;2022-08-20T15:07:46;24.80;99.90
20566;DHT22;10441;50.884;12.064;2022-08-20T15:10:14;24.60;99.90
20566;DHT22;10441;50.884;12.064;2022-08-20T15:12:41;24.50;99.90
20566;DHT22;10441;50.884;12.064;2022-08-20T15:15:09;24.50;99.90
20566;DHT22;10441;50.884;12.064;2022-08-20T15:17:36;24.60;99.90
20566;DHT22;10441;50.884;12.064;2022-08-20T15:20:05;24.40;99.90